This is the latest recevied weather packets stored in our database for station/object OE1HTB-13. If no packets are shown the sender has not sent any weather packets the latest 10 day(s).
| Time | Temp. | Humidity | Pressure | Rain* | Wind** | Luminosity | Snow |
|---|---|---|---|---|---|---|---|
| 1777924875 | 18.33° C | 46% | 1010.1 hPa | 0 mm | - | 0 W/m² | - |
| 1777923975 | 18.33° C | 45% | 1010.2 hPa | 0 mm | - | 0 W/m² | - |
| 1777923074 | 18.89° C | 44% | 1010.2 hPa | 0 mm | - | 0 W/m² | - |
| 1777922174 | 19.44° C | 43% | 1010.2 hPa | 0 mm | - | 0 W/m² | - |
| 1777921274 | 19.44° C | 41% | 1010.2 hPa | 0 mm | - | 0 W/m² | - |
| 1777920374 | 20° C | 40% | 1010.1 hPa | 0 mm | - | 0 W/m² | - |
| 1777919474 | 20.56° C | 39% | 1010.1 hPa | 0 mm | - | 0 W/m² | - |
| 1777918573 | 21.11° C | 38% | 1010 hPa | 0 mm | - | 0 W/m² | - |
| 1777917675 | 21.67° C | 36% | 1009.9 hPa | 0 mm | - | 9 W/m² | - |
| 1777916773 | 21.67° C | 36% | 1009.9 hPa | 0 mm | - | 16 W/m² | - |
| 1777915873 | 22.22° C | 35% | 1009.9 hPa | 0 mm | - | 25 W/m² | - |
| 1777914974 | 22.22° C | 34% | 1010 hPa | 0 mm | - | 21 W/m² | - |
| 1777914074 | 22.78° C | 33% | 1010 hPa | 0 mm | - | 23 W/m² | - |
| 1777913173 | 23.33° C | 33% | 1010.1 hPa | 0 mm | - | 25 W/m² | - |
| 1777912273 | 23.33° C | 32% | 1010.1 hPa | 0 mm | - | 30 W/m² | - |
| 1777911373 | 23.89° C | 32% | 1010.1 hPa | 0 mm | - | 32 W/m² | - |
| 1777910472 | 24.44° C | 31% | 1010.2 hPa | 0 mm | - | 39 W/m² | - |
| 1777909572 | 24.44° C | 30% | 1010.3 hPa | 0 mm | - | 44 W/m² | - |
| 1777908672 | 25° C | 30% | 1010.3 hPa | 0 mm | - | 51 W/m² | - |
| 1777907773 | 25.56° C | 30% | 1010.3 hPa | 0 mm | - | 56 W/m² | - |
| 1777906872 | 26.11° C | 30% | 1010.5 hPa | 0 mm | - | 434 W/m² | - |
| 1777905971 | 26.67° C | 29% | 1010.8 hPa | 0 mm | - | 522 W/m² | - |
| 1777905071 | 26.67° C | 29% | 1010.8 hPa | 0 mm | - | 459 W/m² | - |
| 1777904171 | 26.67° C | 29% | 1011 hPa | 0 mm | - | 517 W/m² | - |
| 1777903271 | 26.67° C | 29% | 1011.1 hPa | 0 mm | - | 603 W/m² | - |
* Rain latest hour (hover to see other rain measurements)
** Current wind speed in m/s (hover to see current wind gust speed)